createdAt,value
2022-10-20T00:00:57.386Z,64.30
2022-10-20T00:03:25.443Z,64.08
2022-10-20T00:05:53.326Z,64.16
2022-10-20T00:08:21.238Z,64.06
2022-10-20T00:10:55.349Z,63.07
2022-10-20T00:13:23.155Z,63.50
2022-10-20T00:15:51.310Z,63.72
2022-10-20T00:18:18.866Z,63.93
2022-10-20T00:20:46.870Z,63.61
2022-10-20T00:23:14.479Z,63.84
2022-10-20T00:25:42.106Z,63.66
2022-10-20T00:28:10.947Z,63.09
2022-10-20T00:30:38.442Z,63.59
2022-10-20T00:33:06.442Z,63.95
2022-10-20T00:35:38.130Z,64.48
2022-10-20T00:38:05.763Z,64.79
2022-10-20T00:40:33.355Z,63.97
2022-10-20T00:43:00.833Z,63.94
2022-10-20T00:45:29.662Z,64.50
2022-10-20T00:48:01.536Z,64.35
2022-10-20T00:50:33.215Z,64.30
2022-10-20T00:53:02.518Z,65.72
2022-10-20T00:55:33.233Z,65.79
2022-10-20T00:58:02.311Z,65.59
2022-10-20T01:00:31.842Z,66.36
2022-10-20T01:03:02.657Z,66.71
2022-10-20T01:05:30.167Z,67.11
2022-10-20T01:07:57.621Z,65.49
2022-10-20T01:10:27.833Z,65.65
2022-10-20T01:13:03.935Z,64.49
2022-10-20T01:15:39.506Z,64.43
2022-10-20T01:18:13.414Z,64.82
2022-10-20T01:21:04.826Z,65.70
2022-10-20T01:23:50.253Z,66.19
2022-10-20T01:26:48.489Z,66.28
2022-10-20T01:29:25.783Z,66.25
2022-10-20T01:32:04.870Z,66.07
2022-10-20T01:34:37.213Z,65.50
2022-10-20T01:37:08.696Z,65.62
2022-10-20T01:39:43.803Z,65.44
2022-10-20T01:42:18.058Z,64.46
2022-10-20T01:44:49.003Z,64.46
2022-10-20T01:47:17.946Z,64.17
2022-10-20T01:49:48.490Z,64.61
2022-10-20T01:52:17.007Z,65.34
2022-10-20T01:54:44.581Z,66.00
2022-10-20T01:57:30.084Z,66.43
2022-10-20T02:00:07.095Z,66.56
2022-10-20T02:02:57.417Z,66.92
2022-10-20T02:05:38.869Z,65.43
2022-10-20T02:08:13.414Z,66.19
2022-10-20T02:10:46.589Z,64.35
2022-10-20T02:13:15.758Z,63.82
2022-10-20T02:15:48.069Z,64.57
2022-10-20T02:18:19.986Z,64.58
2022-10-20T02:20:51.389Z,65.67
2022-10-20T02:23:19.407Z,65.63
2022-10-20T02:25:49.420Z,65.76
2022-10-20T02:28:18.128Z,66.38
2022-10-20T02:30:48.522Z,66.20
2022-10-20T02:33:17.720Z,66.38
2022-10-20T02:35:52.235Z,65.50
2022-10-20T02:38:19.717Z,65.70
2022-10-20T02:40:47.511Z,65.82
2022-10-20T02:43:15.012Z,66.22
2022-10-20T02:45:42.536Z,66.68
2022-10-20T02:48:11.422Z,67.20
2022-10-20T02:50:39.613Z,65.88
2022-10-20T02:53:07.423Z,66.62
2022-10-20T02:55:34.923Z,65.77
2022-10-20T02:58:02.396Z,65.42
2022-10-20T03:00:31.123Z,65.16
2022-10-20T03:02:58.614Z,64.79
2022-10-20T03:05:28.014Z,65.49
2022-10-20T03:07:55.507Z,65.52
2022-10-20T03:10:23.005Z,65.49
2022-10-20T03:12:50.577Z,65.49
2022-10-20T03:15:18.224Z,65.34
2022-10-20T03:17:45.734Z,64.10
2022-10-20T03:20:13.232Z,64.09
2022-10-20T03:22:42.034Z,65.60
2022-10-20T03:25:09.740Z,66.87
2022-10-20T03:27:37.531Z,67.52
2022-10-20T03:30:06.024Z,68.86
2022-10-20T03:32:33.797Z,68.85
2022-10-20T03:35:01.460Z,69.39
2022-10-20T03:37:28.925Z,69.86
2022-10-20T03:39:57.737Z,70.14
2022-10-20T03:42:25.298Z,71.52
2022-10-20T03:44:52.758Z,69.97
2022-10-20T03:47:20.294Z,68.93
2022-10-20T03:49:47.758Z,68.36
2022-10-20T03:52:15.233Z,68.17
2022-10-20T03:54:42.692Z,67.38
2022-10-20T03:57:11.517Z,66.82
2022-10-20T03:59:38.964Z,66.05
2022-10-20T04:02:06.626Z,65.77
2022-10-20T04:04:34.186Z,65.29
2022-10-20T04:07:01.648Z,63.89
2022-10-20T04:09:29.135Z,64.89
2022-10-20T04:11:56.643Z,66.09
2022-10-20T04:14:27.732Z,66.69
2022-10-20T04:16:55.197Z,66.15
2022-10-20T04:19:22.693Z,65.85
2022-10-20T04:21:50.181Z,66.24
2022-10-20T04:24:17.683Z,64.66
2022-10-20T04:26:45.172Z,64.20
2022-10-20T04:29:12.745Z,64.63
2022-10-20T04:31:45.240Z,65.75
2022-10-20T04:34:14.368Z,66.43
2022-10-20T04:36:41.884Z,67.58
2022-10-20T04:39:09.935Z,67.99
2022-10-20T04:41:37.429Z,67.90
2022-10-20T04:44:05.200Z,68.03
2022-10-20T04:46:32.733Z,67.91
2022-10-20T04:49:01.630Z,68.49
2022-10-20T04:51:29.145Z,68.36
2022-10-20T04:53:56.661Z,67.98
2022-10-20T04:56:24.366Z,67.03
2022-10-20T04:58:52.941Z,65.47
2022-10-20T05:01:21.805Z,66.24
2022-10-20T05:03:49.416Z,65.86
2022-10-20T05:06:20.490Z,66.43
2022-10-20T05:08:51.606Z,66.69
2022-10-20T05:11:20.826Z,66.04
2022-10-20T05:13:48.353Z,65.82
2022-10-20T05:16:17.385Z,65.55
2022-10-20T05:18:45.952Z,65.01
2022-10-20T05:21:15.406Z,65.02
2022-10-20T05:23:45.089Z,65.33
2022-10-20T05:26:14.263Z,64.87
2022-10-20T05:28:45.062Z,64.09
2022-10-20T05:31:12.598Z,64.04
2022-10-20T05:33:44.285Z,63.25
2022-10-20T05:36:15.880Z,62.69
2022-10-20T05:38:47.246Z,62.66
2022-10-20T05:41:16.388Z,63.05
2022-10-20T05:43:43.893Z,63.48
2022-10-20T05:46:11.373Z,63.23
2022-10-20T05:48:42.929Z,63.22
2022-10-20T05:51:14.700Z,63.86
2022-10-20T05:53:42.914Z,64.81
2022-10-20T05:56:13.891Z,64.88
2022-10-20T05:58:43.126Z,63.93
2022-10-20T06:01:16.948Z,63.70
2022-10-20T06:03:47.513Z,63.50
2022-10-20T06:06:14.993Z,63.93
2022-10-20T06:08:42.544Z,64.23
2022-10-20T06:11:14.314Z,63.41
2022-10-20T06:13:42.348Z,63.41
2022-10-20T06:16:11.811Z,63.89
2022-10-20T06:18:39.593Z,63.73
2022-10-20T06:21:08.995Z,64.41
2022-10-20T06:23:36.487Z,64.84
2022-10-20T06:26:05.405Z,64.12
2022-10-20T06:28:36.454Z,65.33
2022-10-20T06:31:11.822Z,64.52
2022-10-20T06:33:39.761Z,64.74
2022-10-20T06:36:07.733Z,64.84
2022-10-20T06:38:35.411Z,64.49
2022-10-20T06:41:03.187Z,64.38
2022-10-20T06:43:30.737Z,64.71
2022-10-20T06:46:02.130Z,64.90
2022-10-20T06:48:29.658Z,64.87
2022-10-20T06:50:57.839Z,65.29
2022-10-20T06:53:26.148Z,64.81
2022-10-20T06:55:58.185Z,65.54
2022-10-20T06:58:25.842Z,65.12
2022-10-20T07:01:02.646Z,64.66
2022-10-20T07:03:33.667Z,65.66
2022-10-20T07:06:01.713Z,65.93
2022-10-20T07:08:30.340Z,65.65
2022-10-20T07:11:02.114Z,65.23
2022-10-20T07:13:30.588Z,65.17
2022-10-20T07:15:59.083Z,65.05
2022-10-20T07:18:30.090Z,66.20
2022-10-20T07:20:58.874Z,65.57
2022-10-20T07:23:26.596Z,65.59
2022-10-20T07:26:00.745Z,66.53
2022-10-20T07:28:28.210Z,66.36
2022-10-20T07:30:55.756Z,66.73
2022-10-20T07:33:23.493Z,66.95
2022-10-20T07:35:52.337Z,66.89
2022-10-20T07:38:19.864Z,67.02
2022-10-20T07:40:47.343Z,66.98
2022-10-20T07:43:14.883Z,67.02
2022-10-20T07:45:42.420Z,67.35
2022-10-20T07:48:10.605Z,67.11
2022-10-20T07:50:40.148Z,66.57
2022-10-20T07:53:08.988Z,66.15
2022-10-20T07:55:38.960Z,66.58
2022-10-20T07:58:06.914Z,66.49
2022-10-20T08:00:34.461Z,66.85
2022-10-20T08:03:01.982Z,67.00
2022-10-20T08:05:29.732Z,66.38
2022-10-20T08:07:58.262Z,65.82
2022-10-20T08:10:27.360Z,65.58
2022-10-20T08:12:54.845Z,65.81
2022-10-20T08:15:25.203Z,65.61
2022-10-20T08:17:52.727Z,65.52
2022-10-20T08:20:22.404Z,65.65
2022-10-20T08:22:52.444Z,65.17
2022-10-20T08:25:20.290Z,64.80
2022-10-20T08:27:49.204Z,64.48
2022-10-20T08:30:23.723Z,64.19
2022-10-20T08:32:52.118Z,63.55
2022-10-20T08:35:19.693Z,63.63
2022-10-20T08:37:47.206Z,62.92
2022-10-20T08:40:18.702Z,62.56
2022-10-20T08:42:47.657Z,62.54
2022-10-20T08:45:18.238Z,62.56
2022-10-20T08:47:48.214Z,63.40
2022-10-20T08:50:18.838Z,63.18
2022-10-20T08:52:48.215Z,63.01
2022-10-20T08:55:25.631Z,62.71
2022-10-20T08:57:53.114Z,62.75
2022-10-20T09:00:24.142Z,62.92
2022-10-20T09:02:52.301Z,63.12
2022-10-20T09:05:24.038Z,63.82
2022-10-20T09:07:52.229Z,63.51
2022-10-20T09:10:29.194Z,63.44
2022-10-20T09:12:57.213Z,63.67
2022-10-20T09:15:27.344Z,63.64
2022-10-20T09:17:57.794Z,63.11
2022-10-20T09:20:28.360Z,63.16
2022-10-20T09:22:55.955Z,62.76
2022-10-20T09:25:27.283Z,63.68
2022-10-20T09:27:56.444Z,63.19
2022-10-20T09:30:34.224Z,63.09
2022-10-20T09:33:20.562Z,63.44
2022-10-20T09:35:49.502Z,63.46
2022-10-20T09:38:19.678Z,62.90
2022-10-20T09:40:58.015Z,62.49
2022-10-20T09:43:27.867Z,62.42
2022-10-20T09:46:01.552Z,62.55
2022-10-20T09:48:32.672Z,63.18
2022-10-20T09:51:01.750Z,63.05
2022-10-20T09:53:33.318Z,63.38
2022-10-20T09:56:01.070Z,63.59
2022-10-20T09:58:31.197Z,63.30
2022-10-20T10:01:06.585Z,63.65
2022-10-20T10:03:40.472Z,64.45
2022-10-20T10:06:22.366Z,63.69
2022-10-20T10:08:49.899Z,63.24
2022-10-20T10:11:20.422Z,63.13
2022-10-20T10:13:50.694Z,63.59
2022-10-20T10:16:21.672Z,63.84
2022-10-20T10:18:57.466Z,64.23
2022-10-20T10:21:25.393Z,64.30
2022-10-20T10:23:55.606Z,64.25
2022-10-20T10:26:45.033Z,64.58
2022-10-20T10:29:24.281Z,64.06
2022-10-20T10:31:58.782Z,64.58
2022-10-20T10:35:01.023Z,64.75
2022-10-20T10:37:32.333Z,64.58
2022-10-20T10:40:03.455Z,65.46
2022-10-20T10:42:55.081Z,64.25
2022-10-20T10:45:41.152Z,64.27
2022-10-20T10:48:45.547Z,64.46
2022-10-20T10:51:26.403Z,63.93
2022-10-20T10:54:11.602Z,64.39
2022-10-20T10:56:44.980Z,63.76
2022-10-20T10:59:18.854Z,63.69
2022-10-20T11:02:10.343Z,63.99
2022-10-20T11:04:58.117Z,63.34
2022-10-20T11:07:33.947Z,64.57
2022-10-20T11:10:11.686Z,64.47
2022-10-20T11:12:53.530Z,65.00
2022-10-20T11:15:35.619Z,65.21
2022-10-20T11:18:10.257Z,65.67
2022-10-20T11:20:48.234Z,66.01
2022-10-20T11:23:45.466Z,66.36
2022-10-20T11:26:23.143Z,66.29
2022-10-20T11:28:55.590Z,66.36
2022-10-20T11:31:27.599Z,67.80
2022-10-20T11:34:01.302Z,68.20
2022-10-20T11:36:36.806Z,68.36
2022-10-20T11:39:06.624Z,68.13
2022-10-20T11:44:13.297Z,68.66
2022-10-20T11:46:46.880Z,68.71
2022-10-20T11:49:14.589Z,68.25
2022-10-20T11:52:09.276Z,68.54
2022-10-20T11:54:49.036Z,68.62
2022-10-20T11:57:29.347Z,68.64
2022-10-20T12:00:11.614Z,68.29
2022-10-20T12:03:10.992Z,68.16
2022-10-20T12:06:11.005Z,66.65
2022-10-20T12:09:06.384Z,66.33
2022-10-20T12:11:42.866Z,66.84
2022-10-20T12:14:20.912Z,66.71
2022-10-20T12:17:13.648Z,66.56
2022-10-20T12:19:41.793Z,67.13
2022-10-20T12:22:41.617Z,67.00
2022-10-20T12:25:36.009Z,67.99
2022-10-20T12:28:40.553Z,67.81
2022-10-20T12:31:08.272Z,67.62
2022-10-20T12:33:39.029Z,67.90
2022-10-20T12:36:30.220Z,68.11
2022-10-20T12:39:15.885Z,68.43
2022-10-20T12:41:57.117Z,68.69
2022-10-20T12:44:25.389Z,68.66
2022-10-20T12:46:56.004Z,68.24
2022-10-20T12:49:29.283Z,68.53
2022-10-20T12:51:59.716Z,68.56
2022-10-20T12:54:34.495Z,68.68
2022-10-20T12:57:06.948Z,68.57
2022-10-20T12:59:38.880Z,68.70
2022-10-20T13:02:44.080Z,67.96
2022-10-20T13:05:48.916Z,68.63
2022-10-20T13:08:29.425Z,68.63
2022-10-20T13:11:18.075Z,69.34
2022-10-20T13:14:05.672Z,70.90
2022-10-20T13:16:34.922Z,71.04
2022-10-20T13:19:02.827Z,70.74
2022-10-20T13:21:35.077Z,70.86
2022-10-20T13:24:16.137Z,71.26
2022-10-20T13:26:50.185Z,71.09
2022-10-20T13:29:25.474Z,71.51
2022-10-20T13:32:05.855Z,71.54
2022-10-20T13:34:41.982Z,70.44
2022-10-20T13:37:23.684Z,70.50
2022-10-20T13:40:00.366Z,70.12
2022-10-20T13:42:42.969Z,69.82
2022-10-20T13:45:22.697Z,69.39
2022-10-20T13:47:52.989Z,69.04
2022-10-20T13:50:24.397Z,68.75
2022-10-20T13:52:55.901Z,68.63
2022-10-20T13:55:26.034Z,68.28
2022-10-20T13:57:56.876Z,68.40
2022-10-20T14:00:29.015Z,68.59
2022-10-20T14:03:00.156Z,68.66
2022-10-20T14:05:29.286Z,68.78
2022-10-20T14:07:57.182Z,69.93
2022-10-20T14:10:29.958Z,70.09
2022-10-20T14:12:58.045Z,70.39
2022-10-20T14:15:31.499Z,70.69
2022-10-20T14:18:01.204Z,72.05
2022-10-20T14:20:29.781Z,71.96
2022-10-20T14:22:59.277Z,71.98
2022-10-20T14:25:27.829Z,72.30
2022-10-20T14:27:56.697Z,72.64
2022-10-20T14:30:26.506Z,72.68
2022-10-20T14:32:55.770Z,72.33
2022-10-20T14:35:39.853Z,72.35
2022-10-20T14:38:17.030Z,72.03
2022-10-20T14:40:51.657Z,70.72
2022-10-20T14:43:22.005Z,70.50
2022-10-20T14:45:55.110Z,70.65
2022-10-20T14:48:25.292Z,70.65
2022-10-20T14:50:54.969Z,69.91
2022-10-20T14:53:34.457Z,70.11
2022-10-20T14:56:03.650Z,69.52
2022-10-20T14:58:39.414Z,69.04
2022-10-20T15:01:22.658Z,69.24
2022-10-20T15:04:14.346Z,69.09
2022-10-20T15:06:42.253Z,69.20
2022-10-20T15:09:18.936Z,68.83
2022-10-20T15:11:46.715Z,69.59
2022-10-20T15:14:17.078Z,69.18
2022-10-20T15:16:46.160Z,68.34
2022-10-20T15:19:28.845Z,69.23
2022-10-20T15:22:02.890Z,69.10
2022-10-20T15:24:30.497Z,69.46
2022-10-20T15:26:58.609Z,70.11
2022-10-20T15:29:27.063Z,69.48
2022-10-20T15:31:54.761Z,69.33
2022-10-20T15:34:23.938Z,68.74
2022-10-20T15:36:51.438Z,70.10
2022-10-20T15:39:18.952Z,70.12
2022-10-20T15:41:49.018Z,70.21
2022-10-20T15:44:21.938Z,70.51
2022-10-20T15:46:52.213Z,70.62
2022-10-20T15:49:19.904Z,71.13
2022-10-20T15:51:50.367Z,71.18
2022-10-20T15:54:21.286Z,71.21
2022-10-20T15:56:49.104Z,72.05
2022-10-20T15:59:16.593Z,72.23
2022-10-20T16:01:44.045Z,71.94
2022-10-20T16:04:18.456Z,72.58
2022-10-20T16:06:46.028Z,72.68
2022-10-20T16:09:16.142Z,73.50
2022-10-20T16:11:44.092Z,73.04
2022-10-20T16:14:11.785Z,73.05
2022-10-20T16:16:39.448Z,72.45
2022-10-20T16:19:06.969Z,72.84
2022-10-20T16:21:34.809Z,72.46
2022-10-20T16:24:02.354Z,72.27
2022-10-20T16:26:31.187Z,73.23
2022-10-20T16:28:58.722Z,72.69
2022-10-20T16:31:26.356Z,72.79
2022-10-20T16:33:53.840Z,72.92
2022-10-20T16:36:21.720Z,73.29
2022-10-20T16:38:49.283Z,73.62
2022-10-20T16:41:18.117Z,73.16
2022-10-20T16:43:47.279Z,73.29
2022-10-20T16:46:16.112Z,74.50
2022-10-20T16:48:47.740Z,73.87
2022-10-20T16:51:17.615Z,73.74
2022-10-20T16:53:45.696Z,73.54
2022-10-20T16:56:16.661Z,73.00
2022-10-20T16:58:49.262Z,73.09
2022-10-20T17:01:18.387Z,73.51
2022-10-20T17:03:47.665Z,73.83
2022-10-20T17:06:16.612Z,73.37
2022-10-20T17:08:44.363Z,73.77
2022-10-20T17:11:14.134Z,73.41
2022-10-20T17:13:42.405Z,73.94
2022-10-20T17:16:13.564Z,73.33
2022-10-20T17:18:41.120Z,73.19
2022-10-20T17:21:09.155Z,74.20
2022-10-20T17:23:41.646Z,74.21
2022-10-20T17:26:12.722Z,74.14
2022-10-20T17:28:40.212Z,74.58
2022-10-20T17:31:08.945Z,74.27
2022-10-20T17:33:39.087Z,74.77
2022-10-20T17:36:07.754Z,75.17
2022-10-20T17:38:36.413Z,75.40
2022-10-20T17:41:04.809Z,75.13
2022-10-20T17:43:33.037Z,75.00
2022-10-20T17:46:02.367Z,75.38
2022-10-20T17:48:30.436Z,74.97
2022-10-20T17:51:04.417Z,75.25
2022-10-20T17:53:33.158Z,75.34
2022-10-20T17:56:07.449Z,75.43
2022-10-20T17:58:35.521Z,75.99
2022-10-20T18:01:10.477Z,75.83
2022-10-20T18:03:38.709Z,76.38
2022-10-20T18:06:13.402Z,76.64
2022-10-20T18:08:41.558Z,76.24
2022-10-20T18:11:10.584Z,76.12
2022-10-20T18:13:38.715Z,76.46
2022-10-20T18:16:08.361Z,76.22
2022-10-20T18:18:36.154Z,75.71
2022-10-20T18:21:04.759Z,76.17
2022-10-20T18:23:36.073Z,76.22
2022-10-20T18:26:08.423Z,76.47
2022-10-20T18:28:36.536Z,76.39
2022-10-20T18:31:08.108Z,76.76
2022-10-20T18:33:35.608Z,76.95
2022-10-20T18:36:04.316Z,76.97
2022-10-20T18:38:36.372Z,76.89
2022-10-20T18:41:07.936Z,77.08
2022-10-20T18:43:35.590Z,76.61
2022-10-20T18:46:04.281Z,76.48
2022-10-20T18:48:32.426Z,76.14
2022-10-20T18:51:01.677Z,75.82
2022-10-20T18:53:30.490Z,75.83
2022-10-20T18:56:04.075Z,75.70
2022-10-20T18:58:33.143Z,75.75
2022-10-20T19:01:02.224Z,75.55
2022-10-20T19:03:31.398Z,75.42
2022-10-20T19:06:00.070Z,75.64
2022-10-20T19:08:27.734Z,75.57
2022-10-20T19:10:55.250Z,75.77
2022-10-20T19:13:25.757Z,75.22
2022-10-20T19:15:53.850Z,75.49
2022-10-20T19:18:21.778Z,75.59
2022-10-20T19:20:56.198Z,76.10
2022-10-20T19:23:24.135Z,75.63
2022-10-20T19:26:03.544Z,76.09
2022-10-20T19:28:34.317Z,76.25
2022-10-20T19:31:02.422Z,75.87
2022-10-20T19:33:30.392Z,75.66
2022-10-20T19:35:57.896Z,76.68
2022-10-20T19:38:25.367Z,76.21
2022-10-20T19:40:54.355Z,75.91
2022-10-20T19:43:21.833Z,75.20
2022-10-20T19:45:50.602Z,75.51
2022-10-20T19:48:19.827Z,75.70
2022-10-20T19:50:47.370Z,74.84
2022-10-20T19:53:14.849Z,74.46
2022-10-20T19:55:42.316Z,74.78
2022-10-20T20:00:43.984Z,74.97
2022-10-20T20:03:12.921Z,75.30
2022-10-20T20:05:40.403Z,74.46
2022-10-20T20:08:08.278Z,74.97
2022-10-20T20:10:36.417Z,75.47
2022-10-20T20:13:04.533Z,75.48
2022-10-20T20:15:32.234Z,75.44
2022-10-20T20:17:59.699Z,75.25
2022-10-20T20:20:28.550Z,74.69
2022-10-20T20:22:55.998Z,74.83
2022-10-20T20:25:23.465Z,75.02
2022-10-20T20:27:50.920Z,74.89
2022-10-20T20:30:18.456Z,74.98
2022-10-20T20:32:47.802Z,74.86
2022-10-20T20:35:18.329Z,74.49
2022-10-20T20:37:47.145Z,74.91
2022-10-20T20:40:14.837Z,74.86
2022-10-20T20:42:42.288Z,75.70
2022-10-20T20:45:10.964Z,75.12
2022-10-20T20:47:38.800Z,75.63
2022-10-20T20:50:07.554Z,75.56
2022-10-20T20:52:35.057Z,76.26
2022-10-20T20:55:04.175Z,75.63
2022-10-20T20:57:31.628Z,76.25
2022-10-20T20:59:59.114Z,76.39
2022-10-20T21:02:26.554Z,76.65
2022-10-20T21:04:54.022Z,76.24
2022-10-20T21:07:21.499Z,76.70
2022-10-20T21:09:49.492Z,76.12
2022-10-20T21:12:18.306Z,76.51
2022-10-20T21:14:48.192Z,76.19
2022-10-20T21:17:15.659Z,76.38
2022-10-20T21:19:43.157Z,76.00
2022-10-20T21:22:10.874Z,76.25
2022-10-20T21:24:38.519Z,76.15
2022-10-20T21:27:06.346Z,76.22
2022-10-20T21:29:35.168Z,76.47
2022-10-20T21:32:02.654Z,76.32
2022-10-20T21:34:30.301Z,75.83
2022-10-20T21:36:57.775Z,76.50
2022-10-20T21:39:25.518Z,76.54
2022-10-20T21:41:55.959Z,76.51
2022-10-20T21:44:26.281Z,76.36
2022-10-20T21:46:59.976Z,76.63
2022-10-20T21:49:29.654Z,76.43
2022-10-20T21:52:00.649Z,76.46
2022-10-20T21:54:29.772Z,76.67
2022-10-20T21:56:59.531Z,76.36
2022-10-20T21:59:30.589Z,76.42
2022-10-20T22:02:00.801Z,76.04
2022-10-20T22:04:30.034Z,75.89
2022-10-20T22:06:59.160Z,75.79
2022-10-20T22:09:29.177Z,75.51
2022-10-20T22:11:58.869Z,76.15
2022-10-20T22:14:30.304Z,76.84
2022-10-20T22:16:59.780Z,76.43
2022-10-20T22:19:27.496Z,76.22
2022-10-20T22:21:55.327Z,76.11
2022-10-20T22:24:23.297Z,75.58
2022-10-20T22:26:54.869Z,75.38
2022-10-20T22:29:25.332Z,75.43
2022-10-20T22:31:52.801Z,75.66
2022-10-20T22:34:21.765Z,76.16
2022-10-20T22:36:49.225Z,76.54
2022-10-20T22:39:19.595Z,76.56
2022-10-20T22:41:47.081Z,76.87
2022-10-20T22:44:14.621Z,76.36
2022-10-20T22:46:42.084Z,77.21
2022-10-20T22:49:11.989Z,76.93
2022-10-20T22:51:43.389Z,77.04
2022-10-20T22:54:13.874Z,76.43
2022-10-20T22:56:41.349Z,75.91
2022-10-20T22:59:11.005Z,76.07
2022-10-20T23:01:38.490Z,76.56
2022-10-20T23:04:06.247Z,75.97
2022-10-20T23:06:34.948Z,76.40
2022-10-20T23:09:06.947Z,77.09
2022-10-20T23:11:36.774Z,78.70
2022-10-20T23:14:07.016Z,80.23
2022-10-20T23:16:34.533Z,80.82
2022-10-20T23:19:02.091Z,80.85
2022-10-20T23:21:32.596Z,81.63
2022-10-20T23:24:00.186Z,81.94
2022-10-20T23:26:31.913Z,81.91
2022-10-20T23:29:02.214Z,82.42
2022-10-20T23:31:32.774Z,83.23
2022-10-20T23:34:00.262Z,83.16
2022-10-20T23:36:27.784Z,82.87
2022-10-20T23:38:55.260Z,82.54
2022-10-20T23:41:22.845Z,82.58
2022-10-20T23:43:51.910Z,82.26
2022-10-20T23:46:19.384Z,81.41
2022-10-20T23:48:49.253Z,81.22
2022-10-20T23:51:18.455Z,80.32
2022-10-20T23:53:45.906Z,81.14
2022-10-20T23:56:13.368Z,81.96
2022-10-20T23:58:43.276Z,82.15
